Time;durP1;ratioP1;P1;durP2;ratioP2;P2;SDS_P1;SDS_P2;PMS_P1;PMS_P2;Temp;Humidity;BMP_temperature;BMP_pressure;BME280_temperature;BME280_humidity;BME280_pressure;Samples;Min_cycle;Max_cycle;Signal;HPM_P1;HPM_P2
2023/07/03 00:01:04;;;;;;;23.85;5.05;;;17.50;99.90;;;;;;5000892;28;20033;-79
2023/07/03 00:03:29;;;;;;;16.77;5.28;;;17.50;99.90;;;;;;5005445;28;20060;-80
2023/07/03 00:05:55;;;;;;;11.80;3.53;;;17.50;99.90;;;;;;4998718;28;20286;-82
2023/07/03 00:08:21;;;;;;;20.30;4.07;;;17.50;99.90;;;;;;5002162;28;20030;-82
2023/07/03 00:10:46;;;;;;;12.20;3.88;;;17.40;99.90;;;;;;5000754;28;20071;-82
2023/07/03 00:13:12;;;;;;;17.27;4.00;;;17.40;99.90;;;;;;5002621;28;20029;-82
2023/07/03 00:18:07;;;;;;;14.73;3.80;;;17.30;99.90;;;;;;4974312;28;20133;-78
2023/07/03 00:20:32;;;;;;;16.55;3.72;;;17.30;99.90;;;;;;4977154;28;20521;-80
2023/07/03 00:22:58;;;;;;;14.68;3.42;;;17.30;99.90;;;;;;4975595;28;20101;-81
2023/07/03 00:25:24;;;;;;;19.42;4.05;;;17.30;99.90;;;;;;4977304;28;20022;-82
2023/07/03 00:27:49;;;;;;;14.15;3.40;;;17.30;99.90;;;;;;4979214;28;20033;-81
2023/07/03 00:30:16;;;;;;;15.15;4.07;;;17.30;99.90;;;;;;4975626;28;20726;-81
2023/07/03 00:32:42;;;;;;;14.98;3.28;;;17.30;99.90;;;;;;4976144;28;20061;-81
2023/07/03 00:35:08;;;;;;;16.15;4.13;;;17.20;99.90;;;;;;4976381;28;20024;-81
2023/07/03 00:37:34;;;;;;;17.77;3.78;;;17.20;99.90;;;;;;4975885;28;20054;-80
2023/07/03 00:40:00;;;;;;;18.33;3.03;;;17.20;99.90;;;;;;4972737;28;20510;-80
2023/07/03 00:42:27;;;;;;;22.90;3.80;;;17.20;99.90;;;;;;4969654;28;20029;-81
2023/07/03 00:44:53;;;;;;;17.75;3.60;;;17.10;99.90;;;;;;4984059;28;20054;-80
2023/07/03 00:47:19;;;;;;;13.70;3.50;;;17.20;99.90;;;;;;4977443;28;20110;-81
2023/07/03 00:49:45;;;;;;;14.68;3.50;;;17.20;99.90;;;;;;4978037;28;20377;-82
2023/07/03 00:52:12;;;;;;;8.77;2.97;;;17.10;99.90;;;;;;4980377;28;20113;-80
2023/07/03 00:54:38;;;;;;;14.48;3.17;;;17.20;99.90;;;;;;4978632;28;20073;-83
2023/07/03 00:57:05;;;;;;;20.27;3.70;;;17.10;99.90;;;;;;4977078;28;20042;-81
2023/07/03 00:59:33;;;;;;;14.35;3.45;;;17.10;99.90;;;;;;4979831;28;20309;-80
2023/07/03 01:02:05;;;;;;;12.20;3.42;;;17.10;99.90;;;;;;4975855;28;20034;-82
2023/07/03 01:04:42;;;;;;;18.30;3.63;;;17.00;99.90;;;;;;4978136;28;20257;-80
2023/07/03 01:07:13;;;;;;;15.25;3.42;;;17.00;99.90;;;;;;4975425;28;20775;-80
2023/07/03 01:09:53;;;;;;;20.65;3.80;;;17.00;99.90;;;;;;4976865;28;20488;-82
2023/07/03 01:12:22;;;;;;;14.40;3.35;;;17.00;99.90;;;;;;4974313;28;20482;-80
2023/07/03 01:14:48;;;;;;;14.65;3.53;;;17.00;99.90;;;;;;4985767;28;20501;-80
2023/07/03 01:17:15;;;;;;;8.88;3.45;;;17.00;99.90;;;;;;4989957;28;20065;-80
2023/07/03 01:19:44;;;;;;;13.43;3.00;;;17.00;99.90;;;;;;4978927;28;20022;-81
2023/07/03 01:22:24;;;;;;;18.73;4.13;;;17.00;99.90;;;;;;4991389;28;20113;-81
2023/07/03 01:25:00;;;;;;;16.50;3.55;;;17.00;99.90;;;;;;4990260;28;20586;-81
2023/07/03 01:27:31;;;;;;;12.27;2.90;;;16.90;99.90;;;;;;4975441;28;20865;-82
2023/07/03 01:29:58;;;;;;;19.85;3.67;;;16.90;99.90;;;;;;4964132;28;20026;-82
2023/07/03 01:32:28;;;;;;;12.75;3.15;;;16.90;99.90;;;;;;4970911;28;20505;-82
2023/07/03 01:34:55;;;;;;;13.23;3.17;;;16.90;99.90;;;;;;4974020;28;20062;-81
2023/07/03 01:37:25;;;;;;;16.90;3.97;;;16.80;99.90;;;;;;4976300;28;20498;-82
2023/07/03 01:39:51;;;;;;;14.93;3.10;;;16.80;99.90;;;;;;4974730;28;20030;-81
2023/07/03 01:42:18;;;;;;;12.95;3.03;;;16.80;99.90;;;;;;4983702;28;20118;-81
2023/07/03 01:44:44;;;;;;;24.27;3.70;;;16.80;99.90;;;;;;4989318;28;20054;-82
2023/07/03 01:47:12;;;;;;;18.20;3.58;;;16.80;99.90;;;;;;4977374;28;20023;-82
2023/07/03 01:49:38;;;;;;;13.73;3.03;;;16.80;99.90;;;;;;4975313;28;20263;-80
2023/07/03 01:52:24;;;;;;;16.70;3.25;;;16.80;99.90;;;;;;4976077;28;20026;-81
2023/07/03 01:55:00;;;;;;;14.32;3.42;;;16.80;99.90;;;;;;4978426;28;20118;-81
2023/07/03 01:57:56;;;;;;;15.45;4.00;;;16.80;99.90;;;;;;4976901;28;20034;-82
2023/07/03 02:00:40;;;;;;;17.40;4.00;;;16.80;99.90;;;;;;4976878;28;20731;-81
2023/07/03 02:03:17;;;;;;;19.23;3.42;;;16.80;99.90;;;;;;4976229;28;20034;-81
2023/07/03 02:05:45;;;;;;;18.20;3.60;;;16.80;99.90;;;;;;4972772;28;20023;-81
2023/07/03 02:08:12;;;;;;;19.55;3.53;;;16.70;99.90;;;;;;4975863;28;20069;-81
2023/07/03 02:10:38;;;;;;;12.07;3.00;;;16.70;99.90;;;;;;4976860;28;20045;-81
2023/07/03 02:13:03;;;;;;;18.58;3.80;;;16.70;99.90;;;;;;4977515;28;20176;-82
2023/07/03 02:15:29;;;;;;;14.68;3.33;;;16.70;99.90;;;;;;4980390;28;20026;-81
2023/07/03 02:17:55;;;;;;;21.95;3.85;;;16.70;99.90;;;;;;4977954;28;20033;-81
2023/07/03 02:20:21;;;;;;;18.80;3.70;;;16.60;99.90;;;;;;4977490;28;20537;-82
2023/07/03 02:22:47;;;;;;;25.15;4.07;;;16.60;99.90;;;;;;4976096;28;20174;-81
2023/07/03 02:25:13;;;;;;;16.40;3.85;;;16.70;99.90;;;;;;4987187;28;20445;-81
2023/07/03 02:27:42;;;;;;;14.45;3.83;;;16.70;99.90;;;;;;4975972;28;20018;-80
2023/07/03 02:30:08;;;;;;;14.65;3.70;;;16.60;99.90;;;;;;4977754;28;20475;-81
2023/07/03 02:32:36;;;;;;;16.75;3.55;;;16.60;99.90;;;;;;4981432;28;20040;-81
2023/07/03 02:35:04;;;;;;;14.05;3.28;;;16.60;99.90;;;;;;4970708;28;20454;-81
2023/07/03 02:37:30;;;;;;;17.98;3.35;;;16.60;99.90;;;;;;4977089;28;20074;-81
2023/07/03 02:39:56;;;;;;;21.58;3.92;;;16.50;99.90;;;;;;4976642;28;20033;-82
2023/07/03 02:42:22;;;;;;;17.60;3.35;;;16.60;99.90;;;;;;4975656;28;20312;-82
2023/07/03 02:44:48;;;;;;;16.20;3.70;;;16.50;99.90;;;;;;4975427;28;20129;-81
2023/07/03 02:47:16;;;;;;;18.55;4.00;;;16.60;99.90;;;;;;4977980;28;20022;-82
2023/07/03 02:49:42;;;;;;;17.05;3.72;;;16.60;99.90;;;;;;4991398;28;20032;-82
2023/07/03 02:52:08;;;;;;;18.98;3.67;;;16.50;99.90;;;;;;4976360;28;20486;-85
2023/07/03 02:54:34;;;;;;;18.80;4.25;;;16.50;99.90;;;;;;4970543;28;20030;-84
2023/07/03 02:56:59;;;;;;;25.92;4.10;;;16.50;99.90;;;;;;4977194;28;20061;-80
2023/07/03 02:59:25;;;;;;;21.58;3.55;;;16.50;99.90;;;;;;4977451;28;20121;-81
2023/07/03 03:01:51;;;;;;;23.92;3.78;;;16.50;99.90;;;;;;4990406;28;20041;-81
2023/07/03 03:04:17;;;;;;;21.85;4.43;;;16.50;99.90;;;;;;4978757;28;20026;-81
2023/07/03 03:06:43;;;;;;;24.63;4.00;;;16.50;99.90;;;;;;4980062;28;20055;-82
2023/07/03 03:09:09;;;;;;;23.67;3.88;;;16.50;99.90;;;;;;4980261;28;20026;-81
2023/07/03 03:11:39;;;;;;;21.58;3.97;;;16.40;99.90;;;;;;4980779;28;20565;-80
2023/07/03 03:14:05;;;;;;;21.77;4.15;;;16.50;99.90;;;;;;4990972;28;20034;-81
2023/07/03 03:16:31;;;;;;;22.48;4.32;;;16.50;99.90;;;;;;5007776;28;20034;-81
2023/07/03 03:18:56;;;;;;;16.85;3.55;;;16.30;99.90;;;;;;4990711;28;20124;-81
2023/07/03 03:21:22;;;;;;;20.38;3.53;;;16.40;99.90;;;;;;4996491;28;20370;-81
2023/07/03 03:23:47;;;;;;;25.50;3.53;;;16.40;99.90;;;;;;4980459;28;20038;-81
2023/07/03 03:26:13;;;;;;;26.80;3.67;;;16.40;99.90;;;;;;4979987;28;20030;-82
2023/07/03 03:28:39;;;;;;;25.55;4.13;;;16.40;99.90;;;;;;4979574;28;20026;-81
2023/07/03 03:31:05;;;;;;;23.77;4.57;;;16.30;99.90;;;;;;4981553;28;20033;-80
2023/07/03 03:33:31;;;;;;;15.82;3.35;;;16.30;99.90;;;;;;4980390;28;20031;-80
2023/07/03 03:35:56;;;;;;;24.60;3.95;;;16.30;99.90;;;;;;4981904;28;20035;-82
2023/07/03 03:38:24;;;;;;;27.83;4.57;;;16.30;99.90;;;;;;4979480;28;20439;-81
2023/07/03 03:40:55;;;;;;;27.88;4.07;;;16.40;99.90;;;;;;4989535;28;20026;-81
2023/07/03 03:43:22;;;;;;;21.88;3.15;;;16.40;99.90;;;;;;4994614;28;20026;-81
2023/07/03 03:45:59;;;;;;;28.40;4.45;;;16.30;99.90;;;;;;4979746;28;20398;-81
2023/07/03 03:48:27;;;;;;;25.60;4.43;;;16.40;99.90;;;;;;4982620;28;20030;-81
2023/07/03 03:50:53;;;;;;;23.92;4.20;;;16.40;99.90;;;;;;4980990;28;20451;-81
2023/07/03 03:53:21;;;;;;;22.95;3.97;;;16.30;99.90;;;;;;4992370;28;20114;-81
2023/07/03 03:55:51;;;;;;;17.90;3.75;;;16.20;99.90;;;;;;4979078;28;20030;-81
2023/07/03 03:58:17;;;;;;;21.70;4.22;;;16.30;99.90;;;;;;4973529;28;20121;-81
2023/07/03 04:00:44;;;;;;;30.27;4.57;;;16.30;99.90;;;;;;4979807;28;20023;-81
2023/07/03 04:03:12;;;;;;;24.25;4.40;;;16.30;99.90;;;;;;4976844;28;20030;-81
2023/07/03 04:05:41;;;;;;;20.90;3.65;;;16.20;99.90;;;;;;4979252;28;20026;-81
2023/07/03 04:08:07;;;;;;;28.98;4.20;;;16.30;99.90;;;;;;4980208;28;20038;-81
2023/07/03 04:10:33;;;;;;;24.38;4.22;;;16.20;99.90;;;;;;4976592;28;20089;-81
2023/07/03 04:12:59;;;;;;;25.23;4.38;;;16.20;99.90;;;;;;4978143;28;20027;-81
2023/07/03 04:15:24;;;;;;;25.20;4.50;;;16.30;99.90;;;;;;4982483;28;20489;-81
2023/07/03 04:17:50;;;;;;;25.90;4.10;;;16.30;99.90;;;;;;4978916;28;20282;-81
2023/07/03 04:20:17;;;;;;;17.48;4.30;;;16.30;99.90;;;;;;4980267;28;20194;-81
2023/07/03 04:22:44;;;;;;;26.05;5.18;;;16.30;99.90;;;;;;4976972;28;20018;-81
2023/07/03 04:25:10;;;;;;;22.33;4.38;;;16.30;99.90;;;;;;4972996;28;20022;-81
2023/07/03 04:27:37;;;;;;;32.53;4.78;;;16.20;99.90;;;;;;4982911;28;20026;-81
2023/07/03 04:30:04;;;;;;;23.40;4.28;;;16.30;99.90;;;;;;4980147;28;20608;-81
2023/07/03 04:32:30;;;;;;;19.00;4.32;;;16.30;99.90;;;;;;4979467;28;20025;-80
2023/07/03 04:34:57;;;;;;;23.75;4.32;;;16.30;99.90;;;;;;4977029;28;20145;-81
2023/07/03 04:37:26;;;;;;;26.75;4.90;;;16.30;99.90;;;;;;4977636;28;20516;-82
2023/07/03 04:39:56;;;;;;;29.60;5.15;;;16.30;99.90;;;;;;4977201;28;20022;-82
2023/07/03 04:42:22;;;;;;;21.60;5.03;;;16.30;99.90;;;;;;4978422;28;20415;-83
2023/07/03 04:44:51;;;;;;;29.90;4.80;;;16.30;99.90;;;;;;4975376;28;20383;-82
2023/07/03 04:47:17;;;;;;;25.42;4.47;;;16.30;99.90;;;;;;4978472;28;20109;-83
2023/07/03 04:49:44;;;;;;;20.38;3.97;;;16.30;99.90;;;;;;4986129;28;20423;-81
2023/07/03 04:52:10;;;;;;;33.60;4.95;;;16.30;99.90;;;;;;4976250;28;20027;-83
2023/07/03 04:54:37;;;;;;;26.85;4.88;;;16.30;99.90;;;;;;4976397;28;20068;-82
2023/07/03 04:57:03;;;;;;;22.90;4.50;;;16.30;99.90;;;;;;4977737;28;20034;-82
2023/07/03 04:59:28;;;;;;;29.42;4.85;;;16.20;99.90;;;;;;4974817;28;20027;-83
2023/07/03 05:01:54;;;;;;;22.73;4.90;;;16.30;99.90;;;;;;4979717;28;20038;-82
2023/07/03 05:04:19;;;;;;;28.65;4.85;;;16.30;99.90;;;;;;4977997;28;20026;-80
2023/07/03 05:06:46;;;;;;;26.92;4.10;;;16.40;99.90;;;;;;4977677;28;20101;-81
2023/07/03 05:09:11;;;;;;;28.10;4.32;;;16.40;99.90;;;;;;4984923;28;20122;-79
2023/07/03 05:11:37;;;;;;;27.05;4.68;;;16.50;99.90;;;;;;4975180;28;20034;-78
2023/07/03 05:14:03;;;;;;;25.30;5.10;;;16.60;99.90;;;;;;4975650;28;20560;-77
2023/07/03 05:16:28;;;;;;;29.10;4.75;;;16.70;99.90;;;;;;4970809;28;20042;-79
2023/07/03 05:18:54;;;;;;;24.10;4.57;;;16.80;99.90;;;;;;4977705;28;20153;-77
2023/07/03 05:21:20;;;;;;;31.77;5.07;;;17.00;99.90;;;;;;4977301;28;20059;-78
2023/07/03 05:23:45;;;;;;;26.75;4.40;;;16.80;99.90;;;;;;4977845;28;20022;-77
2023/07/03 05:26:11;;;;;;;20.70;4.88;;;16.90;99.90;;;;;;4976066;28;20136;-78
2023/07/03 05:28:39;;;;;;;23.70;4.65;;;16.80;99.90;;;;;;4977661;28;20027;-78
2023/07/03 05:31:05;;;;;;;23.95;5.22;;;16.90;99.90;;;;;;4976313;28;20038;-77
2023/07/03 05:33:31;;;;;;;33.72;4.97;;;16.90;99.90;;;;;;4979366;28;20022;-78
2023/07/03 05:36:00;;;;;;;26.92;4.28;;;16.90;99.90;;;;;;4978137;28;20037;-78
2023/07/03 05:38:25;;;;;;;26.88;4.60;;;16.90;99.90;;;;;;4977792;28;20049;-77
2023/07/03 05:40:51;;;;;;;24.08;4.32;;;16.90;99.90;;;;;;4977644;28;20427;-78
2023/07/03 05:43:17;;;;;;;27.70;4.53;;;16.90;99.90;;;;;;4981867;28;20070;-77
2023/07/03 05:45:43;;;;;;;31.02;4.95;;;17.00;99.90;;;;;;4977931;28;20385;-77
2023/07/03 05:48:09;;;;;;;27.52;5.20;;;17.20;99.90;;;;;;4974856;28;20117;-78
2023/07/03 05:50:34;;;;;;;29.08;5.35;;;17.30;99.90;;;;;;4978583;28;20109;-77
2023/07/03 05:53:00;;;;;;;29.02;5.25;;;17.10;99.90;;;;;;4975506;28;20036;-78
2023/07/03 05:55:25;;;;;;;27.98;5.30;;;17.10;99.90;;;;;;4978062;28;21244;-78
2023/07/03 05:57:51;;;;;;;36.72;5.38;;;17.00;99.90;;;;;;4977978;28;20080;-78
2023/07/03 06:00:17;;;;;;;25.20;5.55;;;16.90;99.90;;;;;;4994034;28;20030;-78
2023/07/03 06:02:47;;;;;;;26.38;5.10;;;16.80;99.90;;;;;;4977942;28;20018;-78
2023/07/03 06:05:13;;;;;;;23.48;4.88;;;16.70;99.90;;;;;;4978007;28;20105;-78
2023/07/03 06:07:39;;;;;;;25.30;4.90;;;16.70;99.90;;;;;;4979362;28;20037;-78
2023/07/03 06:10:06;;;;;;;22.58;4.53;;;16.80;99.90;;;;;;4976297;28;20023;-78
2023/07/03 06:12:32;;;;;;;33.65;4.80;;;16.80;99.90;;;;;;4975707;28;20237;-78
2023/07/03 06:15:00;;;;;;;32.22;4.75;;;16.80;99.90;;;;;;4976846;28;20072;-78
2023/07/03 06:17:27;;;;;;;32.67;5.20;;;16.80;99.90;;;;;;4976024;28;20049;-78
2023/07/03 06:19:53;;;;;;;21.77;4.13;;;16.70;99.90;;;;;;4977656;28;20327;-77
2023/07/03 06:22:20;;;;;;;32.78;5.30;;;16.80;99.90;;;;;;4977478;28;20057;-78
2023/07/03 06:24:45;;;;;;;29.23;4.65;;;16.80;99.90;;;;;;4980238;28;20058;-79
2023/07/03 06:27:13;;;;;;;27.92;4.50;;;16.80;99.90;;;;;;4975160;28;20567;-77
2023/07/03 06:29:39;;;;;;;23.55;5.20;;;16.90;99.90;;;;;;4975646;28;20499;-78
2023/07/03 06:32:09;;;;;;;29.48;5.05;;;17.00;99.90;;;;;;4975464;28;20022;-78
2023/07/03 06:34:35;;;;;;;27.13;5.72;;;17.10;99.90;;;;;;4980543;28;20514;-78
2023/07/03 06:37:05;;;;;;;25.23;5.07;;;17.20;99.90;;;;;;4975159;28;20049;-78
2023/07/03 06:39:36;;;;;;;27.45;4.50;;;17.20;99.90;;;;;;4983727;28;20038;-78
2023/07/03 06:42:03;;;;;;;20.80;4.38;;;17.30;99.90;;;;;;4976723;28;20030;-78
2023/07/03 06:44:28;;;;;;;21.70;5.25;;;17.30;99.90;;;;;;4981782;28;20021;-78
2023/07/03 06:46:54;;;;;;;29.35;5.80;;;17.40;99.90;;;;;;4980496;28;20026;-77
2023/07/03 06:49:22;;;;;;;22.20;4.88;;;17.40;99.90;;;;;;4979482;28;20026;-77
2023/07/03 06:51:48;;;;;;;17.15;4.78;;;17.50;99.90;;;;;;4979666;28;20019;-77
2023/07/03 06:54:16;;;;;;;22.95;4.72;;;17.60;99.90;;;;;;4972548;28;20026;-77
2023/07/03 06:56:41;;;;;;;26.08;3.85;;;17.70;99.90;;;;;;4978130;28;20286;-77
2023/07/03 06:59:07;;;;;;;31.50;5.30;;;17.70;99.90;;;;;;4980562;28;20026;-77
2023/07/03 07:01:33;;;;;;;29.70;5.38;;;17.70;99.90;;;;;;4985450;28;20050;-77
2023/07/03 07:03:58;;;;;;;23.75;4.93;;;17.80;99.90;;;;;;4994752;28;20034;-77
2023/07/03 07:06:27;;;;;;;21.55;4.10;;;17.80;99.90;;;;;;4980511;28;20026;-76
2023/07/03 07:08:53;;;;;;;26.98;4.95;;;17.90;99.90;;;;;;4979309;28;20205;-77
2023/07/03 07:11:22;;;;;;;28.92;5.53;;;18.00;99.90;;;;;;4980754;28;20108;-77
2023/07/03 07:13:50;;;;;;;24.98;4.97;;;18.20;99.90;;;;;;4977852;28;20019;-77
2023/07/03 07:16:21;;;;;;;20.30;4.68;;;18.40;99.90;;;;;;4980917;28;20125;-77
2023/07/03 07:18:50;;;;;;;35.10;5.50;;;18.50;99.90;;;;;;4992838;28;20125;-77
2023/07/03 07:21:16;;;;;;;27.23;4.75;;;18.60;99.90;;;;;;4979902;28;20065;-79
2023/07/03 07:23:42;;;;;;;25.35;5.35;;;18.60;99.90;;;;;;4980134;28;20026;-79
2023/07/03 07:26:08;;;;;;;21.38;4.30;;;18.50;99.90;;;;;;4979466;28;20060;-79
2023/07/03 07:28:34;;;;;;;23.67;4.97;;;18.70;99.90;;;;;;4979679;28;20080;-79
2023/07/03 07:30:59;;;;;;;24.42;4.57;;;18.70;99.90;;;;;;4979161;28;20088;-79
2023/07/03 07:33:28;;;;;;;19.10;4.68;;;18.70;99.90;;;;;;4994310;28;20385;-79
2023/07/03 07:35:55;;;;;;;16.95;4.57;;;18.80;99.90;;;;;;4977839;28;20053;-80
2023/07/03 07:38:21;;;;;;;28.23;5.15;;;18.70;99.90;;;;;;4979120;28;20045;-78
2023/07/03 07:40:48;;;;;;;19.13;4.50;;;18.70;99.90;;;;;;4979513;28;20027;-78
2023/07/03 07:43:14;;;;;;;26.42;5.00;;;18.70;99.90;;;;;;4978430;28;20330;-78
2023/07/03 07:45:40;;;;;;;27.40;4.80;;;18.70;99.90;;;;;;4979877;28;20027;-78
2023/07/03 07:48:07;;;;;;;23.75;4.57;;;18.70;99.90;;;;;;4980270;28;20023;-78
2023/07/03 07:50:39;;;;;;;21.73;4.50;;;18.80;99.90;;;;;;4978971;28;20548;-77
2023/07/03 07:53:06;;;;;;;27.48;4.80;;;18.80;99.90;;;;;;4982735;28;20034;-78
2023/07/03 07:55:36;;;;;;;29.05;5.32;;;18.90;99.90;;;;;;4983063;28;20431;-80
2023/07/03 07:58:01;;;;;;;23.10;5.20;;;18.80;99.90;;;;;;4980044;28;20064;-78
2023/07/03 08:00:27;;;;;;;27.10;5.15;;;18.70;99.90;;;;;;4978883;28;20030;-78
2023/07/03 08:02:53;;;;;;;21.90;4.75;;;18.80;99.90;;;;;;4979130;28;20031;-78
2023/07/03 08:05:19;;;;;;;18.98;4.55;;;18.90;99.90;;;;;;4978632;28;20471;-79
2023/07/03 08:07:45;;;;;;;33.80;5.35;;;18.90;99.90;;;;;;4979907;28;20113;-78
2023/07/03 08:10:11;;;;;;;22.60;5.28;;;19.00;99.90;;;;;;4978480;28;20816;-79
2023/07/03 08:12:37;;;;;;;19.70;4.05;;;18.90;99.90;;;;;;4977356;28;20032;-79
2023/07/03 08:15:03;;;;;;;25.25;5.00;;;18.80;99.90;;;;;;4979908;28;20023;-80
2023/07/03 08:17:29;;;;;;;19.83;4.85;;;18.80;99.90;;;;;;4980092;28;20592;-83
2023/07/03 08:19:56;;;;;;;16.42;4.10;;;18.80;99.90;;;;;;4979103;28;20657;-82
2023/07/03 08:22:22;;;;;;;22.92;4.82;;;18.90;99.90;;;;;;4979330;28;20370;-81
2023/07/03 08:24:48;;;;;;;19.90;4.22;;;19.00;99.90;;;;;;4977613;28;20478;-80
2023/07/03 08:27:13;;;;;;;17.48;4.65;;;19.00;99.90;;;;;;4979405;28;20041;-80
2023/07/03 08:29:39;;;;;;;22.40;4.50;;;18.90;99.90;;;;;;4981407;28;20030;-81
2023/07/03 08:32:08;;;;;;;22.67;4.15;;;18.90;99.90;;;;;;4977631;28;20153;-81
2023/07/03 08:34:34;;;;;;;21.85;4.35;;;19.00;99.90;;;;;;4976605;28;20535;-81
2023/07/03 08:36:59;;;;;;;18.88;4.38;;;19.10;99.90;;;;;;4969491;28;20172;-80
2023/07/03 08:39:25;;;;;;;27.38;4.45;;;19.20;99.90;;;;;;4971648;28;20078;-80
2023/07/03 08:42:06;;;;;;;21.83;4.40;;;19.40;99.90;;;;;;4981947;28;20106;-81
2023/07/03 08:44:32;;;;;;;24.77;5.07;;;19.30;99.90;;;;;;4988744;28;20985;-81
2023/07/03 08:46:59;;;;;;;26.52;5.75;;;19.30;99.90;;;;;;4978031;28;20054;-80
2023/07/03 08:49:26;;;;;;;18.80;4.75;;;19.20;99.90;;;;;;4980826;28;20441;-81
2023/07/03 08:51:54;;;;;;;22.58;4.45;;;19.10;99.90;;;;;;4977968;28;20462;-82
2023/07/03 08:54:28;;;;;;;23.75;4.88;;;19.20;99.90;;;;;;4985599;28;20026;-80
2023/07/03 08:56:56;;;;;;;19.70;4.72;;;19.20;99.90;;;;;;4975453;28;20046;-79
2023/07/03 08:59:22;;;;;;;28.17;6.00;;;18.90;99.90;;;;;;4979119;28;20106;-80
2023/07/03 09:02:04;;;;;;;31.17;5.25;;;18.80;99.90;;;;;;4976960;28;20496;-80
2023/07/03 09:04:36;;;;;;;25.17;5.60;;;18.70;99.90;;;;;;4993004;28;20515;-80
2023/07/03 09:07:04;;;;;;;26.38;5.82;;;18.70;99.90;;;;;;4976648;28;20030;-80
2023/07/03 09:09:32;;;;;;;23.13;4.95;;;18.60;99.90;;;;;;4993356;28;20546;-80
2023/07/03 09:12:10;;;;;;;25.75;4.95;;;18.40;99.90;;;;;;4977902;28;20431;-80
2023/07/03 09:14:48;;;;;;;27.20;5.93;;;18.50;99.90;;;;;;4993018;28;20022;-79
2023/07/03 09:17:14;;;;;;;24.83;6.80;;;18.50;99.90;;;;;;4978356;28;20673;-80
2023/07/03 09:19:47;;;;;;;25.58;5.38;;;18.50;99.90;;;;;;4978628;28;20022;-80
2023/07/03 09:22:33;;;;;;;20.38;4.40;;;18.70;99.90;;;;;;4992386;28;20613;-79
2023/07/03 09:25:02;;;;;;;24.95;4.40;;;19.00;99.90;;;;;;4963349;28;20027;-79
2023/07/03 09:27:28;;;;;;;17.23;4.57;;;19.10;99.90;;;;;;4971730;28;20518;-79
2023/07/03 09:29:59;;;;;;;22.10;5.47;;;19.20;99.90;;;;;;4995656;28;20027;-79
2023/07/03 09:32:27;;;;;;;29.13;4.90;;;19.30;99.90;;;;;;4978696;28;20040;-80
2023/07/03 09:35:16;;;;;;;21.70;4.88;;;19.40;99.90;;;;;;4973083;28;20490;-80
2023/07/03 09:37:46;;;;;;;25.15;4.82;;;19.40;99.90;;;;;;4979372;28;20120;-80
2023/07/03 09:40:34;;;;;;;21.75;4.90;;;19.40;99.90;;;;;;4978469;28;20430;-80
2023/07/03 09:43:00;;;;;;;25.38;5.22;;;19.40;99.90;;;;;;4976937;28;20469;-79
2023/07/03 09:45:33;;;;;;;16.35;4.65;;;19.40;99.90;;;;;;4981940;28;20048;-79
2023/07/03 09:48:02;;;;;;;25.65;4.88;;;19.30;99.90;;;;;;4976482;28;20545;-80
2023/07/03 09:50:34;;;;;;;27.83;4.63;;;19.40;99.90;;;;;;4977867;28;20101;-79
2023/07/03 09:53:02;;;;;;;24.90;4.10;;;19.40;99.90;;;;;;4982791;28;20061;-80
2023/07/03 09:55:29;;;;;;;23.92;5.07;;;19.40;99.90;;;;;;4978193;28;20038;-79
2023/07/03 09:57:54;;;;;;;29.48;5.28;;;19.50;99.90;;;;;;4978815;28;20042;-80
2023/07/03 10:00:25;;;;;;;20.55;3.85;;;19.50;99.90;;;;;;4987361;28;20030;-79
2023/07/03 10:03:00;;;;;;;18.60;5.20;;;19.70;99.90;;;;;;4990478;28;20315;-80
2023/07/03 10:05:32;;;;;;;16.70;4.07;;;19.80;99.90;;;;;;4990380;28;20479;-80
2023/07/03 10:08:06;;;;;;;26.65;4.90;;;20.00;99.90;;;;;;4978514;28;20029;-81
2023/07/03 10:10:34;;;;;;;20.00;5.35;;;20.20;99.90;;;;;;4977516;28;20074;-80
2023/07/03 10:13:10;;;;;;;20.70;4.05;;;20.30;99.90;;;;;;4977827;28;20122;-80
2023/07/03 10:15:41;;;;;;;21.65;4.70;;;20.40;99.90;;;;;;4977948;28;20037;-82
2023/07/03 10:18:11;;;;;;;19.13;4.55;;;20.40;99.90;;;;;;4996897;28;20687;-80
2023/07/03 10:20:44;;;;;;;13.75;3.55;;;20.30;99.90;;;;;;4980940;28;20052;-80
2023/07/03 10:23:17;;;;;;;;;;;20.40;99.90;;;;;;4983172;28;20030;-80
2023/07/03 10:25:56;;;;;;;18.25;3.70;;;20.70;99.90;;;;;;4982478;28;19909;-80
2023/07/03 10:28:28;;;;;;;11.35;3.65;;;21.20;99.90;;;;;;4977779;28;20042;-80
2023/07/03 10:31:01;;;;;;;9.57;2.77;;;21.60;99.90;;;;;;4977380;28;20034;-80
2023/07/03 10:33:32;;;;;;;11.63;3.05;;;22.00;98.50;;;;;;4983574;28;20085;-79
2023/07/03 10:36:01;;;;;;;10.50;2.83;;;22.60;97.10;;;;;;4982352;28;20038;-79
2023/07/03 10:38:55;;;;;;;11.85;2.97;;;23.20;95.00;;;;;;4988346;28;20493;-80
2023/07/03 10:41:52;;;;;;;9.95;2.88;;;23.60;93.30;;;;;;4980722;28;20034;-80
2023/07/03 10:44:31;;;;;;;8.05;2.80;;;23.10;90.70;;;;;;4971688;28;20125;-80
2023/07/03 10:46:59;;;;;;;7.45;3.00;;;22.90;91.40;;;;;;4980518;28;20030;-80
2023/07/03 10:49:36;;;;;;;18.95;3.25;;;22.60;91.40;;;;;;4982734;28;20040;-80
2023/07/03 10:52:28;;;;;;;10.35;3.03;;;22.50;91.70;;;;;;4980499;28;20120;-80
2023/07/03 10:54:53;;;;;;;15.80;3.45;;;22.10;91.60;;;;;;4980327;28;20469;-80
2023/07/03 10:57:27;;;;;;;18.33;3.08;;;21.90;91.90;;;;;;4984432;28;20043;-80
2023/07/03 11:00:00;;;;;;;8.25;2.75;;;21.80;92.40;;;;;;4977780;28;20140;-79
2023/07/03 11:02:57;;;;;;;13.88;3.10;;;21.60;92.70;;;;;;4964865;28;20101;-80
2023/07/03 11:05:38;;;;;;;14.15;4.07;;;22.00;93.00;;;;;;4944753;28;20034;-80
2023/07/03 11:08:08;;;;;;;12.27;2.92;;;22.10;93.50;;;;;;4965272;28;20027;-82
2023/07/03 11:11:08;;;;;;;13.90;3.60;;;21.90;93.50;;;;;;4952589;28;20022;-79
2023/07/03 11:13:49;;;;;;;16.83;3.80;;;21.50;93.40;;;;;;4964724;28;20027;-79
2023/07/03 11:16:21;;;;;;;22.10;4.57;;;21.10;94.20;;;;;;4952872;28;20157;-79
2023/07/03 11:19:17;;;;;;;15.43;3.72;;;21.00;94.50;;;;;;4962771;28;20041;-79
2023/07/03 11:21:58;;;;;;;11.43;3.60;;;20.80;95.10;;;;;;4964687;28;20616;-79
2023/07/03 11:24:56;;;;;;;14.73;4.18;;;20.80;95.30;;;;;;4952923;28;20027;-79
2023/07/03 11:27:35;;;;;;;17.73;3.72;;;21.00;95.70;;;;;;4937693;28;20034;-79
2023/07/03 11:30:02;;;;;;;11.75;4.30;;;21.10;95.50;;;;;;4968831;28;20026;-80
2023/07/03 11:32:30;;;;;;;15.32;3.42;;;21.20;95.50;;;;;;4967767;28;20451;-80
2023/07/03 11:34:56;;;;;;;15.70;3.58;;;21.20;95.10;;;;;;4963000;28;20073;-79
2023/07/03 11:37:36;;;;;;;16.60;4.07;;;21.30;94.60;;;;;;4963874;28;20450;-80
2023/07/03 11:40:30;;;;;;;15.63;3.67;;;21.40;94.60;;;;;;4967586;28;20031;-79
2023/07/03 11:43:19;;;;;;;19.80;4.18;;;21.60;94.70;;;;;;4953814;28;20031;-79
2023/07/03 11:45:57;;;;;;;18.13;3.83;;;21.60;94.80;;;;;;4965587;28;20427;-79
2023/07/03 11:48:32;;;;;;;12.32;4.13;;;21.70;94.60;;;;;;4964734;28;20035;-81
2023/07/03 11:51:12;;;;;;;15.38;3.97;;;21.70;94.40;;;;;;4961793;28;20026;-81
2023/07/03 11:53:52;;;;;;;14.77;3.92;;;21.60;94.30;;;;;;4969102;28;20604;-79
2023/07/03 11:56:33;;;;;;;18.00;4.20;;;21.70;94.20;;;;;;4965763;28;20185;-80
2023/07/03 11:59:09;;;;;;;12.95;3.90;;;21.70;94.50;;;;;;4968780;28;20031;-79
2023/07/03 12:01:36;;;;;;;18.63;4.20;;;22.10;94.20;;;;;;4963099;28;20034;-79
2023/07/03 12:04:05;;;;;;;15.15;3.72;;;23.10;93.40;;;;;;4969037;28;20023;-80
2023/07/03 12:06:42;;;;;;;21.77;4.55;;;23.80;92.30;;;;;;4950131;28;20022;-80
2023/07/03 12:09:29;;;;;;;20.67;4.10;;;24.50;90.70;;;;;;4965388;28;20510;-82
2023/07/03 12:12:24;;;;;;;17.25;4.22;;;24.30;90.00;;;;;;4963794;28;20035;-81
2023/07/03 12:15:00;;;;;;;13.90;4.05;;;23.90;88.10;;;;;;4957829;28;20679;-79
2023/07/03 12:17:33;;;;;;;19.25;4.65;;;24.00;88.50;;;;;;4965471;28;20327;-81
2023/07/03 12:20:31;;;;;;;;;;;24.20;87.70;;;;;;4957129;28;20038;-81
2023/07/03 12:22:56;;;;;;;17.30;4.18;;;24.20;87.60;;;;;;4913251;28;19914;-84
2023/07/03 12:25:28;;;;;;;15.20;4.25;;;24.00;87.90;;;;;;4964130;28;20022;-83
2023/07/03 12:28:07;;;;;;;14.80;3.87;;;23.60;88.20;;;;;;4965026;28;20027;-82
2023/07/03 12:30:33;;;;;;;13.73;4.10;;;23.40;88.20;;;;;;4966930;28;20038;-82
2023/07/03 12:33:01;;;;;;;12.10;4.07;;;23.50;88.10;;;;;;4965171;28;20069;-81
2023/07/03 12:35:37;;;;;;;22.00;4.70;;;23.50;88.70;;;;;;4965484;28;20267;-81
2023/07/03 12:38:09;;;;;;;16.17;4.50;;;23.50;87.70;;;;;;4962062;28;20045;-82
2023/07/03 12:40:46;;;;;;;14.20;3.97;;;23.40;88.60;;;;;;4965224;28;20065;-82
2023/07/03 12:43:16;;;;;;;19.63;4.78;;;23.20;88.70;;;;;;4967578;28;20085;-82
2023/07/03 12:45:41;;;;;;;15.63;4.40;;;23.20;88.00;;;;;;4961525;28;20487;-83
2023/07/03 12:48:07;;;;;;;14.98;4.68;;;23.40;86.40;;;;;;4977544;28;20037;-82
2023/07/03 12:50:45;;;;;;;16.63;4.80;;;24.00;84.00;;;;;;4960153;28;20029;-81
2023/07/03 12:53:14;;;;;;;9.18;4.13;;;24.40;83.10;;;;;;4963594;28;20036;-82